createdAt,value
2023-01-07T00:01:25.880Z,3.92
2023-01-07T00:03:54.039Z,3.72
2023-01-07T00:06:31.079Z,3.70
2023-01-07T00:08:59.222Z,3.75
2023-01-07T00:11:36.909Z,3.60
2023-01-07T00:14:05.601Z,3.35
2023-01-07T00:16:34.417Z,3.50
2023-01-07T00:19:03.708Z,3.65
2023-01-07T00:21:32.432Z,3.75
2023-01-07T00:24:05.286Z,3.45
2023-01-07T00:26:35.138Z,3.88
2023-01-07T00:29:02.265Z,3.53
2023-01-07T00:31:32.479Z,4.00
2023-01-07T00:33:59.859Z,4.07
2023-01-07T00:36:29.684Z,3.95
2023-01-07T00:38:59.346Z,3.60
2023-01-07T00:41:26.980Z,3.95
2023-01-07T00:43:54.796Z,4.20
2023-01-07T00:46:22.648Z,3.70
2023-01-07T00:48:49.977Z,4.05
2023-01-07T00:51:18.784Z,4.07
2023-01-07T00:53:46.477Z,3.90
2023-01-07T00:56:14.888Z,3.83
2023-01-07T00:58:42.338Z,3.90
2023-01-07T01:01:10.872Z,4.25
2023-01-07T01:03:38.509Z,4.65
2023-01-07T01:06:14.592Z,4.05
2023-01-07T01:08:44.075Z,3.80
2023-01-07T01:11:13.199Z,4.20
2023-01-07T01:13:41.580Z,3.72
2023-01-07T01:16:14.525Z,3.97
2023-01-07T01:18:42.463Z,4.28
2023-01-07T01:21:11.334Z,4.28
2023-01-07T01:23:39.180Z,3.50
2023-01-07T01:26:17.080Z,4.00
2023-01-07T01:28:44.945Z,4.10
2023-01-07T01:31:14.532Z,4.28
2023-01-07T01:33:55.111Z,4.43
2023-01-07T01:36:23.391Z,4.10
2023-01-07T01:38:52.049Z,4.00
2023-01-07T01:41:19.515Z,4.05
2023-01-07T01:43:50.585Z,4.00
2023-01-07T01:46:23.997Z,5.20
2023-01-07T01:48:56.961Z,4.43
2023-01-07T01:51:27.680Z,4.50
2023-01-07T01:53:56.580Z,3.97
2023-01-07T01:56:30.496Z,4.25
2023-01-07T01:59:07.240Z,4.35
2023-01-07T02:01:37.249Z,4.40
2023-01-07T02:04:13.168Z,4.68
2023-01-07T02:06:48.034Z,4.57
2023-01-07T02:09:15.512Z,4.68
2023-01-07T02:11:58.362Z,4.50
2023-01-07T02:14:46.533Z,4.40
2023-01-07T02:17:44.989Z,3.92
2023-01-07T02:20:22.751Z,3.75
2023-01-07T02:23:08.389Z,3.95
2023-01-07T02:26:00.133Z,4.10
2023-01-07T02:29:01.105Z,4.13
2023-01-07T02:31:58.844Z,4.13
2023-01-07T02:34:39.151Z,4.82
2023-01-07T02:37:30.979Z,4.38
2023-01-07T02:40:12.260Z,4.85
2023-01-07T02:43:17.869Z,4.10
2023-01-07T02:46:13.362Z,4.30
2023-01-07T02:48:41.990Z,4.20
2023-01-07T02:51:09.022Z,4.50
2023-01-07T02:53:40.064Z,3.97
2023-01-07T02:56:38.384Z,3.47
2023-01-07T02:59:11.313Z,3.92
2023-01-07T03:01:49.577Z,3.67
2023-01-07T03:04:27.848Z,3.90
2023-01-07T03:06:57.596Z,3.70
2023-01-07T03:09:46.337Z,3.88
2023-01-07T03:12:16.794Z,3.50
2023-01-07T03:15:18.953Z,3.63
2023-01-07T03:18:21.462Z,3.67
2023-01-07T03:20:53.717Z,3.30
2023-01-07T03:23:25.358Z,3.13
2023-01-07T03:25:55.893Z,3.30
2023-01-07T03:28:27.741Z,3.50
2023-01-07T03:30:57.679Z,3.17
2023-01-07T03:33:45.889Z,2.95
2023-01-07T03:36:17.090Z,3.47
2023-01-07T03:38:46.644Z,3.47
2023-01-07T03:41:34.321Z,3.42
2023-01-07T03:44:01.972Z,3.17
2023-01-07T03:46:29.261Z,2.95
2023-01-07T03:48:56.497Z,2.83
2023-01-07T03:51:24.325Z,3.17
2023-01-07T03:53:51.482Z,3.00
2023-01-07T03:56:18.551Z,3.00
2023-01-07T03:58:45.680Z,2.70
2023-01-07T04:01:12.887Z,2.92
2023-01-07T04:03:40.063Z,2.80
2023-01-07T04:06:07.138Z,3.22
2023-01-07T04:08:34.275Z,3.00
2023-01-07T04:11:01.541Z,2.10
2023-01-07T04:13:29.071Z,2.85
2023-01-07T04:15:56.134Z,2.45
2023-01-07T04:18:23.452Z,1.95
2023-01-07T04:20:50.492Z,1.98
2023-01-07T04:23:17.617Z,2.15
2023-01-07T04:25:47.530Z,1.98
2023-01-07T04:28:17.509Z,2.42
2023-01-07T04:30:44.563Z,2.33
2023-01-07T04:33:11.798Z,2.00
2023-01-07T04:35:40.493Z,1.90
2023-01-07T04:38:07.749Z,2.30
2023-01-07T04:40:34.899Z,1.95
2023-01-07T04:43:03.321Z,1.90
2023-01-07T04:45:31.014Z,1.98
2023-01-07T04:48:00.180Z,2.00
2023-01-07T04:50:28.697Z,2.30
2023-01-07T04:52:56.097Z,2.13
2023-01-07T04:55:23.523Z,2.08
2023-01-07T04:57:50.930Z,1.98
2023-01-07T05:00:18.825Z,2.00
2023-01-07T05:02:48.836Z,1.90
2023-01-07T05:05:16.699Z,1.58
2023-01-07T05:07:44.725Z,1.80
2023-01-07T05:10:12.389Z,1.85
2023-01-07T05:12:39.362Z,2.05
2023-01-07T05:15:09.560Z,1.80
2023-01-07T05:17:39.640Z,2.00
2023-01-07T05:20:09.260Z,1.70
2023-01-07T05:22:38.486Z,1.90
2023-01-07T05:25:06.219Z,1.65
2023-01-07T05:27:33.361Z,1.65
2023-01-07T05:30:02.320Z,1.95
2023-01-07T05:32:33.336Z,2.00
2023-01-07T05:35:02.404Z,1.63
2023-01-07T05:40:28.845Z,2.00
2023-01-07T05:42:56.244Z,1.60
2023-01-07T05:45:23.420Z,1.80
2023-01-07T05:47:54.641Z,1.77
2023-01-07T05:50:23.721Z,1.93
2023-01-07T05:52:51.791Z,1.65
2023-01-07T05:55:19.207Z,1.73
2023-01-07T05:57:46.320Z,1.90
2023-01-07T06:00:14.651Z,1.70
2023-01-07T06:02:41.670Z,1.70
2023-01-07T06:05:09.507Z,1.60
2023-01-07T06:07:36.763Z,1.58
2023-01-07T06:10:04.229Z,2.00
2023-01-07T06:12:31.584Z,1.50
2023-01-07T06:14:58.555Z,1.50
2023-01-07T06:17:25.693Z,1.50
2023-01-07T06:19:52.848Z,1.50
2023-01-07T06:22:19.808Z,1.73
2023-01-07T06:24:46.820Z,1.33
2023-01-07T06:27:13.784Z,1.42
2023-01-07T06:32:29.621Z,1.40
2023-01-07T06:34:56.763Z,1.55
2023-01-07T06:37:23.796Z,1.55
2023-01-07T06:39:50.889Z,1.60
2023-01-07T06:42:17.818Z,1.30
2023-01-07T06:44:48.061Z,1.40
2023-01-07T06:47:15.116Z,1.40
2023-01-07T06:49:42.055Z,1.30
2023-01-07T06:52:09.175Z,1.02
2023-01-07T06:54:36.449Z,1.25
2023-01-07T06:57:03.712Z,1.27
2023-01-07T06:59:34.656Z,1.27
2023-01-07T07:07:34.329Z,1.23
2023-01-07T07:10:07.238Z,1.45
2023-01-07T07:12:35.811Z,1.30
2023-01-07T07:15:03.093Z,1.40
2023-01-07T07:17:30.306Z,1.50
2023-01-07T07:19:57.366Z,1.20
2023-01-07T07:22:24.375Z,1.15
2023-01-07T07:24:51.657Z,1.17
2023-01-07T07:27:18.752Z,1.25
2023-01-07T07:29:46.105Z,1.35
2023-01-07T07:32:13.537Z,1.08
2023-01-07T07:34:44.088Z,1.30
2023-01-07T07:37:11.396Z,1.25
2023-01-07T07:39:38.699Z,1.50
2023-01-07T07:42:06.197Z,1.27
2023-01-07T07:44:40.385Z,1.23
2023-01-07T07:47:07.673Z,1.30
2023-01-07T07:49:34.792Z,1.23
2023-01-07T07:52:02.170Z,1.17
2023-01-07T07:54:29.418Z,1.30
2023-01-07T07:56:58.436Z,1.20
2023-01-07T07:59:26.174Z,1.15
2023-01-07T08:01:53.555Z,1.38
2023-01-07T08:04:20.847Z,1.30
2023-01-07T08:06:48.247Z,1.08
2023-01-07T08:09:15.365Z,1.52
2023-01-07T08:11:42.650Z,1.38
2023-01-07T08:14:10.542Z,1.40
2023-01-07T08:16:37.906Z,1.23
2023-01-07T08:19:05.106Z,1.70
2023-01-07T08:21:32.281Z,1.60
2023-01-07T08:23:59.479Z,2.10
2023-01-07T08:26:26.686Z,1.45
2023-01-07T08:28:54.445Z,1.52
2023-01-07T08:31:21.889Z,1.58
2023-01-07T08:33:49.206Z,1.70
2023-01-07T08:36:22.885Z,1.88
2023-01-07T08:38:51.962Z,1.90
2023-01-07T08:44:21.667Z,1.85
2023-01-07T08:46:48.921Z,1.70
2023-01-07T08:49:16.126Z,2.30
2023-01-07T08:51:43.394Z,1.80
2023-01-07T08:54:10.667Z,2.35
2023-01-07T08:56:37.900Z,2.03
2023-01-07T08:59:05.100Z,1.95
2023-01-07T09:01:32.338Z,2.15
2023-01-07T09:06:57.680Z,2.60
2023-01-07T09:09:25.148Z,2.47
2023-01-07T09:11:52.445Z,2.67
2023-01-07T09:14:19.616Z,2.53
2023-01-07T09:16:46.850Z,2.75
2023-01-07T09:19:14.197Z,2.40
2023-01-07T09:21:41.520Z,3.00
2023-01-07T09:24:08.996Z,2.53
2023-01-07T09:26:36.315Z,2.85
2023-01-07T09:29:03.736Z,2.55
2023-01-07T09:31:31.156Z,2.95
2023-01-07T09:37:00.687Z,2.70
2023-01-07T09:39:28.952Z,2.60
2023-01-07T09:42:09.126Z,2.65
2023-01-07T09:45:01.238Z,3.00
2023-01-07T09:47:29.696Z,2.50
2023-01-07T09:50:03.764Z,2.90
2023-01-07T09:58:38.716Z,3.28
2023-01-07T10:01:10.236Z,2.38
2023-01-07T10:04:07.166Z,2.67
2023-01-07T10:06:43.441Z,2.40
2023-01-07T10:09:33.045Z,2.30
2023-01-07T10:12:22.066Z,2.70
2023-01-07T10:15:04.149Z,2.45
2023-01-07T10:17:52.718Z,2.40
2023-01-07T10:20:26.685Z,2.35
2023-01-07T10:23:12.950Z,2.50
2023-01-07T10:25:49.480Z,2.30
2023-01-07T10:28:37.799Z,2.50
2023-01-07T10:31:07.521Z,2.20
2023-01-07T10:33:34.700Z,2.40
2023-01-07T10:36:25.971Z,2.47
2023-01-07T10:38:58.837Z,2.20
2023-01-07T10:41:36.986Z,2.78
2023-01-07T10:44:33.598Z,2.58
2023-01-07T10:47:25.806Z,2.10
2023-01-07T10:50:08.286Z,2.33
2023-01-07T10:52:47.278Z,2.70
2023-01-07T10:55:20.931Z,2.22
2023-01-07T11:00:38.398Z,2.20
2023-01-07T11:03:14.919Z,2.30
2023-01-07T11:05:42.975Z,2.50
2023-01-07T11:08:22.355Z,2.60
2023-01-07T11:10:49.583Z,2.60
2023-01-07T11:13:21.249Z,2.40
2023-01-07T11:15:56.983Z,2.92
2023-01-07T11:18:34.269Z,2.35
2023-01-07T11:21:02.114Z,2.50
2023-01-07T11:23:32.096Z,2.58
2023-01-07T11:26:32.655Z,3.00
2023-01-07T11:29:14.503Z,2.80
2023-01-07T11:31:53.497Z,2.58
2023-01-07T11:34:32.057Z,2.70
2023-01-07T11:36:59.168Z,2.78
2023-01-07T11:39:36.347Z,2.80
2023-01-07T11:42:38.936Z,3.10
2023-01-07T11:45:16.009Z,2.90
2023-01-07T11:48:06.096Z,2.85
2023-01-07T11:50:54.501Z,3.33
2023-01-07T11:53:36.082Z,2.92
2023-01-07T11:56:07.587Z,3.03
2023-01-07T11:58:38.187Z,2.90
2023-01-07T12:01:07.957Z,3.17
2023-01-07T12:03:36.701Z,2.70
2023-01-07T12:06:09.781Z,2.72
2023-01-07T12:08:37.402Z,3.40
2023-01-07T12:11:09.102Z,3.60
2023-01-07T12:13:39.580Z,3.35
2023-01-07T12:16:08.697Z,3.28
2023-01-07T12:18:52.696Z,3.17
2023-01-07T12:21:48.516Z,2.92
2023-01-07T12:24:43.028Z,3.25
2023-01-07T12:27:29.072Z,2.80
2023-01-07T12:30:20.507Z,2.80
2023-01-07T12:33:22.769Z,2.70
2023-01-07T12:35:50.551Z,3.40
2023-01-07T12:38:23.553Z,3.08
2023-01-07T12:40:58.449Z,3.30
2023-01-07T12:43:34.204Z,3.38
2023-01-07T12:46:04.939Z,2.97
2023-01-07T12:48:36.689Z,3.30
2023-01-07T12:51:12.732Z,3.13
2023-01-07T12:54:03.925Z,3.20
2023-01-07T12:56:48.787Z,3.20
2023-01-07T12:59:46.663Z,3.00
2023-01-07T13:02:17.837Z,3.50
2023-01-07T13:05:08.029Z,4.30
2023-01-07T13:07:42.663Z,2.90
2023-01-07T13:10:19.296Z,3.00
2023-01-07T13:12:49.257Z,2.90
2023-01-07T13:15:21.248Z,2.97
2023-01-07T13:17:55.620Z,3.00
2023-01-07T13:20:31.612Z,3.05
2023-01-07T13:23:00.276Z,2.80
2023-01-07T13:26:08.112Z,2.97
2023-01-07T13:29:01.108Z,2.80
2023-01-07T13:31:53.767Z,2.75
2023-01-07T13:34:45.184Z,3.00
2023-01-07T13:37:46.951Z,2.60
2023-01-07T13:40:32.386Z,2.80
2023-01-07T13:43:02.431Z,2.30
2023-01-07T13:45:33.018Z,2.83
2023-01-07T13:48:05.104Z,2.58
2023-01-07T13:50:40.036Z,2.88
2023-01-07T13:53:27.248Z,2.70
2023-01-07T13:56:16.880Z,2.83
2023-01-07T13:58:48.884Z,2.75
2023-01-07T14:01:27.499Z,2.75
2023-01-07T14:04:07.005Z,2.80
2023-01-07T14:06:39.771Z,2.38
2023-01-07T14:09:06.793Z,2.50
2023-01-07T14:11:33.681Z,2.75
2023-01-07T14:14:27.014Z,2.70
2023-01-07T14:17:28.752Z,2.70
2023-01-07T14:20:22.038Z,2.28
2023-01-07T14:22:54.874Z,3.10
2023-01-07T14:25:40.220Z,2.58
2023-01-07T14:28:39.549Z,2.92
2023-01-07T14:31:18.912Z,3.20
2023-01-07T14:33:58.164Z,3.33
2023-01-07T14:37:06.454Z,2.33
2023-01-07T14:39:45.466Z,2.90
2023-01-07T15:10:01.797Z,2.85
2023-01-07T15:15:48.436Z,2.80
2023-01-07T15:21:26.300Z,2.53
2023-01-07T15:24:17.952Z,2.80
2023-01-07T15:27:09.662Z,2.53
2023-01-07T15:30:02.580Z,2.88
2023-01-07T15:32:38.797Z,2.88
2023-01-07T15:35:48.530Z,3.05
2023-01-07T15:38:26.918Z,3.28
2023-01-07T15:40:55.873Z,3.45
2023-01-07T15:43:26.885Z,3.70
2023-01-07T15:46:02.204Z,3.50
2023-01-07T15:48:29.712Z,3.60
2023-01-07T15:50:56.925Z,2.88
2023-01-07T15:53:26.612Z,3.03
2023-01-07T15:56:07.713Z,3.70
2023-01-07T15:58:44.967Z,3.47
2023-01-07T16:01:20.569Z,3.67
2023-01-07T16:03:50.342Z,2.88
2023-01-07T16:06:39.409Z,3.08
2023-01-07T16:09:19.122Z,3.65
2023-01-07T16:11:46.320Z,4.15
2023-01-07T16:14:24.827Z,3.20
2023-01-07T16:17:14.869Z,3.70
2023-01-07T16:19:42.508Z,4.00
2023-01-07T16:22:17.868Z,4.10
2023-01-07T16:24:53.566Z,4.03
2023-01-07T16:27:30.352Z,4.10
2023-01-07T16:29:59.417Z,4.15
2023-01-07T16:32:26.999Z,4.00
2023-01-07T16:35:07.004Z,4.30
2023-01-07T16:37:38.465Z,4.28
2023-01-07T17:11:09.727Z,4.43
2023-01-07T17:13:40.149Z,5.03
2023-01-07T17:25:07.187Z,3.90
2023-01-07T17:36:48.927Z,4.63
2023-01-07T17:39:16.190Z,4.90
2023-01-07T18:04:30.854Z,4.27
2023-01-07T18:06:58.113Z,4.13
2023-01-07T18:09:25.103Z,3.78
2023-01-07T18:12:10.544Z,4.25
2023-01-07T18:14:37.643Z,4.43
2023-01-07T18:17:05.021Z,4.68
2023-01-07T18:19:32.151Z,3.95
2023-01-07T18:21:59.205Z,4.13
2023-01-07T18:24:26.323Z,4.00
2023-01-07T18:26:55.129Z,3.90
2023-01-07T18:29:23.713Z,4.30
2023-01-07T18:31:50.799Z,3.60
2023-01-07T18:34:17.915Z,4.18
2023-01-07T18:36:49.068Z,4.07
2023-01-07T18:39:23.381Z,3.33
2023-01-07T18:41:50.737Z,3.25
2023-01-07T18:44:19.169Z,4.28
2023-01-07T18:46:46.531Z,3.85
2023-01-07T18:49:13.649Z,3.85
2023-01-07T18:51:41.198Z,3.63
2023-01-07T18:54:11.065Z,3.95
2023-01-07T18:56:41.325Z,4.15
2023-01-07T18:59:09.019Z,4.40
2023-01-07T19:01:36.421Z,4.22
2023-01-07T19:04:05.331Z,4.25
2023-01-07T19:06:33.768Z,4.32
2023-01-07T19:09:01.226Z,4.45
2023-01-07T19:11:29.667Z,3.65
2023-01-07T19:13:57.016Z,4.50
2023-01-07T19:16:24.787Z,4.45
2023-01-07T19:18:56.411Z,4.00
2023-01-07T19:21:24.183Z,4.35
2023-01-07T19:23:51.550Z,4.47
2023-01-07T19:26:19.299Z,4.07
2023-01-07T19:28:49.347Z,4.32
2023-01-07T19:31:17.235Z,4.35
2023-01-07T19:33:44.849Z,3.80
2023-01-07T19:36:13.114Z,4.35
2023-01-07T19:38:45.079Z,4.07
2023-01-07T19:41:15.563Z,4.30
2023-01-07T19:43:46.168Z,4.03
2023-01-07T19:46:15.540Z,4.38
2023-01-07T19:48:43.170Z,3.72
2023-01-07T19:51:11.464Z,4.20
2023-01-07T19:53:39.172Z,3.90
2023-01-07T19:56:09.445Z,4.38
2023-01-07T19:58:37.661Z,4.53
2023-01-07T20:01:08.734Z,3.88
2023-01-07T20:03:36.986Z,4.40
2023-01-07T20:06:07.060Z,4.53
2023-01-07T20:08:34.777Z,3.45
2023-01-07T20:11:02.522Z,3.95
2023-01-07T20:13:33.844Z,3.60
2023-01-07T20:16:15.713Z,3.75
2023-01-07T20:18:45.483Z,3.85
2023-01-07T20:21:14.506Z,4.07
2023-01-07T20:23:42.638Z,3.63
2023-01-07T20:26:13.005Z,3.90
2023-01-07T20:28:40.793Z,3.80
2023-01-07T20:31:13.356Z,4.00
2023-01-07T20:33:41.773Z,3.75
2023-01-07T20:36:20.351Z,3.67
2023-01-07T20:38:48.201Z,3.60
2023-01-07T20:41:21.164Z,3.72
2023-01-07T20:43:52.898Z,3.90
2023-01-07T20:46:20.715Z,4.18
2023-01-07T20:48:49.431Z,3.75
2023-01-07T20:51:18.225Z,3.92
2023-01-07T20:53:49.299Z,3.83
2023-01-07T20:56:19.010Z,3.40
2023-01-07T20:58:46.977Z,3.17
2023-01-07T21:01:17.292Z,3.58
2023-01-07T21:03:45.787Z,3.70
2023-01-07T21:06:17.471Z,3.50
2023-01-07T21:08:46.808Z,3.70
2023-01-07T21:11:16.943Z,3.70
2023-01-07T21:13:44.419Z,3.70
2023-01-07T21:16:12.334Z,3.90
2023-01-07T21:18:39.889Z,3.80
2023-01-07T21:21:19.242Z,3.40
2023-01-07T21:23:47.087Z,4.20
2023-01-07T21:26:15.208Z,3.78
2023-01-07T21:28:44.359Z,3.55
2023-01-07T21:31:13.451Z,3.72
2023-01-07T21:33:40.894Z,3.70
2023-01-07T21:36:13.313Z,3.40
2023-01-07T21:38:40.563Z,3.75
2023-01-07T21:41:12.231Z,3.60
2023-01-07T21:43:40.708Z,3.40
2023-01-07T21:46:09.244Z,3.67
2023-01-07T21:48:38.662Z,3.85
2023-01-07T21:51:08.588Z,4.03
2023-01-07T21:53:37.036Z,3.53
2023-01-07T21:56:09.049Z,3.47
2023-01-07T21:58:37.465Z,3.90
2023-01-07T22:01:06.203Z,3.75
2023-01-07T22:03:34.424Z,4.35
2023-01-07T22:06:04.135Z,3.63
2023-01-07T22:08:31.477Z,3.90
2023-01-07T22:10:58.525Z,3.58
2023-01-07T22:13:25.761Z,3.30
2023-01-07T22:15:52.844Z,3.50
2023-01-07T22:18:19.919Z,2.60
2023-01-07T22:20:53.754Z,2.53
2023-01-07T22:25:47.725Z,2.08
2023-01-07T22:28:17.700Z,2.22
2023-01-07T22:30:52.447Z,1.60
2023-01-07T22:33:19.853Z,1.48
2023-01-07T22:35:48.122Z,1.40
2023-01-07T22:38:16.767Z,1.92
2023-01-07T22:40:43.981Z,1.85
2023-01-07T22:43:14.633Z,1.60
2023-01-07T22:45:54.441Z,1.60
2023-01-07T22:48:24.514Z,1.48
2023-01-07T22:50:57.992Z,1.42
2023-01-07T22:53:25.237Z,1.20
2023-01-07T22:55:52.322Z,1.27
2023-01-07T22:58:19.695Z,1.85
2023-01-07T23:00:58.231Z,1.30
2023-01-07T23:03:25.705Z,1.38
2023-01-07T23:05:53.037Z,1.45
2023-01-07T23:08:20.269Z,1.70
2023-01-07T23:10:48.363Z,1.50
2023-01-07T23:13:15.814Z,2.17
2023-01-07T23:15:42.846Z,1.75
2023-01-07T23:18:11.478Z,1.55
2023-01-07T23:20:41.024Z,1.70
2023-01-07T23:23:09.536Z,1.42
2023-01-07T23:25:36.785Z,1.20
2023-01-07T23:28:04.742Z,1.88
2023-01-07T23:30:31.878Z,1.58
2023-01-07T23:32:58.869Z,1.38
2023-01-07T23:35:25.962Z,1.70
2023-01-07T23:37:53.071Z,1.70
2023-01-07T23:40:20.186Z,1.45
2023-01-07T23:42:49.312Z,1.70
2023-01-07T23:45:17.006Z,2.00
2023-01-07T23:47:44.941Z,1.88
2023-01-07T23:50:12.622Z,2.20
2023-01-07T23:52:40.105Z,2.35
2023-01-07T23:55:07.894Z,2.78
2023-01-07T23:57:35.000Z,2.20
